메인 페이지
METAR-TAF:

METAR-TAF

공항 :

콜럼버스, 조지아, 미국

위도: 32-30-58N, 경도: 084-56-32W, 고도: 121m

현재 날씨관측

예보는 46분 전, 22:51시(UTC)에 발표되었습니다.
남동5kt
온도 26°C
습도 74%
기압 1012 hPa
시정: 16.1km
고도 4100ft 상공 구름 조금

METAR: KCSG 262251Z 13005KT 10SM FEW041 26/21 A2988 RMK AO2 SLP112 T02610211

시각: 19:37 (23:37 UTC)

예보

예보는 6 시간 12분 전, 17:25시(UTC)에 발표되었습니다.
예보 대상 시간: 26일 18시부터 27일 18시까지 (UTC)
5kt
시정: 10km
고도 2500ft 상공 구름 보통
고도 4000ft 상공 구름 보통
고도 12000ft 상공 구름 많음
시계 내 소나기
일시적
26일 19시부터 26일 23시까지 (UTC)
여러 방향의 바람 15kt, 순간 최대 풍속 25kt
시정: 4.8km
고도 2500ft 상공 구름 많음, 적란운.
뇌우, 비
27일 0300시부터 (UTC)
여러 방향의 바람 3kt
시정: 10km
고도 4000ft 상공 구름 보통
고도 20000ft 상공 구름 많음
27일 1000시부터 (UTC)
여러 방향의 바람 3kt
시정: 10km
고도 1500ft 상공 구름 보통
고도 8000ft 상공 구름 많음
고도 15000ft 상공 흐림
27일 1200시부터 (UTC)
여러 방향의 바람 3kt
시정: 10km
고도 1200ft 상공 구름 많음
27일 1500시부터 (UTC)
5kt
시정: 10km
고도 3000ft 상공 흐림
시계 내 소나기

TAF: KCSG 261725Z 2618/2718 18005KT P6SM VCSH SCT025 SCT040 BKN120 TEMPO 2619/2623 VRB15G25KT 3SM TSRA BKN025CB FM270300 VRB03KT P6SM SCT040 BKN200 FM271000 VRB03KT P6SM SCT015 BKN080 OVC150 FM271200 VRB03KT P6SM BKN012 FM271500 09005KT P6SM VCSH OVC030

4,000개 이상의 공항 관측 자료 및 예보 (METAR 및 TAF 보고).

지도상에서 검색 가능한 기상관측소가 노란 점과 빨간 점으로 표시되어 있습니다.

기상관측소 명을 보려면 표시 위로 마우스를 이동하세요.

날씨 관측과 예보를 보려면 클릭하세요.

지도 변경 : 확대하려면 엑스 표시가 있는 녹색 버튼, 축소하려면 빼기 표시가 있는 녹색 버튼, 다음 페이지의 지도를 보려면 녹색 화살표를 클릭하세요.


METAR-TAF: